createdAt,value
2023-04-07T00:02:01.959Z,95207.25
2023-04-07T00:04:29.896Z,95203.13
2023-04-07T00:06:57.743Z,95208.69
2023-04-07T00:09:25.607Z,95209.16
2023-04-07T00:11:53.407Z,95203.13
2023-04-07T00:14:21.174Z,95205.66
2023-04-07T00:16:49.048Z,95209.78
2023-04-07T00:19:18.388Z,95213.44
2023-04-07T00:21:46.163Z,95213.44
2023-04-07T00:24:18.573Z,95210.09
2023-04-07T00:26:56.739Z,95208.84
2023-04-07T00:29:24.764Z,95210.44
2023-04-07T00:31:52.591Z,95213.78
2023-04-07T00:34:21.886Z,95210.13
2023-04-07T00:36:52.215Z,95202.97
2023-04-07T00:39:20.154Z,95202.66
2023-04-07T00:41:49.119Z,95199.47
2023-04-07T00:44:17.501Z,95206.44
2023-04-07T00:46:45.547Z,95203.44
2023-04-07T00:49:13.767Z,95201.03
2023-04-07T00:51:42.877Z,95188.97
2023-04-07T00:54:11.706Z,95190.56
2023-04-07T00:56:40.028Z,95177.84
2023-04-07T00:59:08.773Z,95186.44
2023-04-07T01:01:45.680Z,95182.31
2023-04-07T01:04:31.345Z,95176.41
2023-04-07T01:07:06.619Z,95187.25
2023-04-07T01:09:47.085Z,95181.06
2023-04-07T01:12:24.573Z,95179.47
2023-04-07T01:14:56.834Z,95183.59
2023-04-07T01:17:48.760Z,95176.44
2023-04-07T01:20:20.643Z,95178.19
2023-04-07T01:22:56.009Z,95167.38
2023-04-07T01:25:38.967Z,95170.41
2023-04-07T01:28:40.868Z,95175.16
2023-04-07T01:31:11.740Z,95168.00
2023-04-07T01:33:40.988Z,95166.25
2023-04-07T01:36:10.748Z,95166.09
2023-04-07T01:38:39.991Z,95169.91
2023-04-07T01:41:10.889Z,95162.28
2023-04-07T01:43:43.419Z,95167.31
2023-04-07T01:46:13.662Z,95163.97
2023-04-07T01:48:42.314Z,95167.63
2023-04-07T01:51:11.964Z,95162.38
2023-04-07T01:53:40.571Z,95164.44
2023-04-07T01:56:08.919Z,95152.69
2023-04-07T01:58:38.442Z,95160.25
2023-04-07T02:01:09.270Z,95157.88
2023-04-07T02:03:46.488Z,95159.78
2023-04-07T02:06:20.230Z,95154.69
2023-04-07T02:08:51.463Z,95159.78
2023-04-07T02:11:22.872Z,95149.13
2023-04-07T02:13:55.507Z,95158.31
2023-04-07T02:16:23.982Z,95157.06
2023-04-07T02:18:54.826Z,95167.56
2023-04-07T02:21:23.692Z,95160.53
2023-04-07T02:23:54.807Z,95155.56
2023-04-07T02:26:22.906Z,95155.94
2023-04-07T02:28:50.721Z,95153.88
2023-04-07T02:31:18.609Z,95147.81
2023-04-07T02:33:46.513Z,95144.66
2023-04-07T02:36:15.765Z,95146.22
2023-04-07T02:38:43.580Z,95148.63
2023-04-07T02:41:11.609Z,95164.22
2023-04-07T02:43:39.380Z,95154.53
2023-04-07T02:46:07.417Z,95149.13
2023-04-07T02:48:35.321Z,95150.84
2023-04-07T02:51:03.699Z,95152.44
2023-04-07T02:53:32.862Z,95153.25
2023-04-07T02:56:00.965Z,95142.28
2023-04-07T02:58:28.928Z,95149.66
2023-04-07T03:00:56.969Z,95149.97
2023-04-07T03:03:28.636Z,95145.66
2023-04-07T03:06:05.075Z,95147.28
2023-04-07T03:08:35.671Z,95137.59
2023-04-07T03:11:03.448Z,95143.31
2023-04-07T03:13:32.254Z,95141.91
2023-04-07T03:16:00.234Z,95136.00
2023-04-07T03:18:32.672Z,95127.09
2023-04-07T03:21:02.247Z,95134.09
2023-04-07T03:23:30.340Z,95132.47
2023-04-07T03:26:01.592Z,95129.78
2023-04-07T03:28:34.129Z,95126.94
2023-04-07T03:31:02.686Z,95124.78
2023-04-07T03:33:31.110Z,95121.09
2023-04-07T03:35:58.933Z,95118.59
2023-04-07T03:38:27.151Z,95119.38
2023-04-07T03:40:58.682Z,95117.16
2023-04-07T03:43:30.506Z,95118.75
2023-04-07T03:45:58.297Z,95105.72
2023-04-07T03:48:28.673Z,95106.97
2023-04-07T03:51:17.297Z,95107.16
2023-04-07T03:53:47.225Z,95112.69
2023-04-07T03:56:28.898Z,95104.91
2023-04-07T03:59:00.034Z,95105.88
2023-04-07T04:01:31.700Z,95101.78
2023-04-07T04:04:06.987Z,95098.03
2023-04-07T04:06:35.852Z,95091.78
2023-04-07T04:09:23.108Z,95107.66
2023-04-07T04:11:51.115Z,95096.56
2023-04-07T04:14:21.219Z,95093.53
2023-04-07T04:16:54.993Z,95088.63
2023-04-07T04:19:40.789Z,95097.53
2023-04-07T04:22:31.523Z,95097.03
2023-04-07T04:25:00.541Z,95096.44
2023-04-07T04:27:29.524Z,95092.63
2023-04-07T04:30:08.034Z,95098.66
2023-04-07T04:32:40.878Z,95098.34
2023-04-07T04:35:10.333Z,95096.59
2023-04-07T04:37:47.805Z,95096.59
2023-04-07T04:40:16.097Z,95096.75
2023-04-07T04:42:47.017Z,95090.75
2023-04-07T04:45:17.136Z,95100.09
2023-04-07T04:47:48.001Z,95096.59
2023-04-07T04:50:16.657Z,95088.81
2023-04-07T04:52:46.883Z,95083.59
2023-04-07T04:55:20.993Z,95077.06
2023-04-07T04:57:48.851Z,95075.63
2023-04-07T05:00:24.141Z,95084.38
2023-04-07T05:02:57.931Z,95073.72
2023-04-07T05:05:26.585Z,95073.72
2023-04-07T05:07:56.232Z,95069.59
2023-04-07T05:10:25.498Z,95083.59
2023-04-07T05:12:53.276Z,95081.34
2023-04-07T05:15:22.984Z,95071.69
2023-04-07T05:17:51.728Z,95071.66
2023-04-07T05:20:24.640Z,95069.13
2023-04-07T05:22:52.526Z,95070.06
2023-04-07T05:25:23.720Z,95068.47
2023-04-07T05:27:55.689Z,95073.25
2023-04-07T05:30:24.853Z,95072.94
2023-04-07T05:32:54.034Z,95074.69
2023-04-07T05:35:30.101Z,95080.41
2023-04-07T05:37:59.480Z,95080.72
2023-04-07T05:40:27.910Z,95072.13
2023-04-07T05:42:58.266Z,95077.50
2023-04-07T05:45:29.807Z,95075.44
2023-04-07T05:47:57.861Z,95079.72
2023-04-07T05:50:33.492Z,95076.16
2023-04-07T05:53:05.822Z,95072.03
2023-04-07T05:55:33.659Z,95064.47
2023-04-07T05:58:02.170Z,95079.97
2023-04-07T06:00:34.483Z,95061.22
2023-04-07T06:03:08.294Z,95066.56
2023-04-07T06:05:47.597Z,95067.88
2023-04-07T06:08:15.642Z,95066.56
2023-04-07T06:10:44.259Z,95064.13
2023-04-07T06:13:12.925Z,95061.03
2023-04-07T06:15:42.308Z,95045.13
2023-04-07T06:18:11.202Z,95053.50
2023-04-07T06:20:40.632Z,95051.16
2023-04-07T06:23:08.491Z,95048.28
2023-04-07T06:25:36.323Z,95035.25
2023-04-07T06:28:04.181Z,95037.19
2023-04-07T06:30:32.129Z,95055.75
2023-04-07T06:33:02.297Z,95050.78
2023-04-07T06:35:30.266Z,95044.72
2023-04-07T06:37:58.351Z,95043.25
2023-04-07T06:40:26.294Z,95044.22
2023-04-07T06:42:54.680Z,95053.66
2023-04-07T06:45:31.678Z,95042.03
2023-04-07T06:48:03.509Z,95046.88
2023-04-07T06:50:31.343Z,95046.25
2023-04-07T06:52:59.212Z,95032.09
2023-04-07T06:55:27.704Z,95038.47
2023-04-07T06:57:55.531Z,95024.47
2023-04-07T07:00:24.043Z,95046.13
2023-04-07T07:02:52.034Z,95045.00
2023-04-07T07:05:21.777Z,95040.13
2023-04-07T07:07:49.602Z,95044.38
2023-04-07T07:10:17.519Z,95039.97
2023-04-07T07:12:45.334Z,95045.34
2023-04-07T07:15:13.175Z,95042.34
2023-04-07T07:17:42.784Z,95034.19
2023-04-07T07:20:11.798Z,95039.63
2023-04-07T07:22:41.361Z,95048.16
2023-04-07T07:25:09.597Z,95045.53
2023-04-07T07:27:37.448Z,95043.88
2023-04-07T07:30:06.428Z,95049.03
2023-04-07T07:32:34.207Z,95046.59
2023-04-07T07:35:02.026Z,95060.31
2023-04-07T07:37:29.817Z,95066.09
2023-04-07T07:39:59.226Z,95059.16
2023-04-07T07:42:27.096Z,95065.31
2023-04-07T07:44:54.893Z,95058.72
2023-04-07T07:47:23.455Z,95060.19
2023-04-07T07:49:51.294Z,95056.06
2023-04-07T07:52:20.652Z,95073.91
2023-04-07T07:54:49.070Z,95052.56
2023-04-07T07:57:18.592Z,95056.91
2023-04-07T07:59:46.709Z,95051.56
2023-04-07T08:02:14.715Z,95063.25
2023-04-07T08:04:42.817Z,95049.97
2023-04-07T08:07:11.504Z,95042.78
2023-04-07T08:09:39.324Z,95048.34
2023-04-07T08:12:07.922Z,95043.66
2023-04-07T08:14:37.154Z,95042.78
2023-04-07T08:17:04.976Z,95041.13
2023-04-07T08:19:32.838Z,95039.13
2023-04-07T08:22:00.747Z,95030.94
2023-04-07T08:24:29.689Z,95032.22
2023-04-07T08:26:59.154Z,95045.63
2023-04-07T08:29:27.206Z,95037.28
2023-04-07T08:31:56.582Z,95041.22
2023-04-07T08:34:24.409Z,95033.63
2023-04-07T08:36:52.202Z,95034.81
2023-04-07T08:39:20.026Z,95031.88
2023-04-07T08:41:48.893Z,95045.00
2023-04-07T08:44:17.796Z,95032.31
2023-04-07T08:46:48.170Z,95029.00
2023-04-07T08:49:19.463Z,95025.81
2023-04-07T08:51:48.576Z,95030.91
2023-04-07T08:54:18.894Z,95025.88
2023-04-07T08:56:47.065Z,95028.06
2023-04-07T08:59:18.612Z,95028.72
2023-04-07T09:01:48.343Z,95020.66
2023-04-07T09:04:18.281Z,95036.16
2023-04-07T09:06:46.180Z,95022.81
2023-04-07T09:09:15.335Z,95031.13
2023-04-07T09:11:43.583Z,95023.13
2023-04-07T09:14:11.566Z,95022.25
2023-04-07T09:16:40.583Z,95017.81
2023-04-07T09:19:08.538Z,95028.09
2023-04-07T09:21:50.774Z,95014.16
2023-04-07T09:24:27.067Z,95024.91
2023-04-07T09:27:11.192Z,95018.22
2023-04-07T09:29:39.909Z,95012.25
2023-04-07T09:32:08.123Z,95004.59
2023-04-07T09:34:40.373Z,95004.13
2023-04-07T09:37:22.574Z,95006.69
2023-04-07T09:39:51.612Z,95006.38
2023-04-07T09:42:19.581Z,95007.75
2023-04-07T09:44:47.556Z,95006.28
2023-04-07T09:47:16.032Z,95003.56
2023-04-07T09:49:54.522Z,95002.91
2023-04-07T09:52:27.451Z,94996.50
2023-04-07T09:54:56.761Z,94991.56
2023-04-07T09:57:25.816Z,94996.66
2023-04-07T09:59:55.554Z,95002.41
2023-04-07T10:02:24.100Z,94992.72
2023-04-07T10:04:52.013Z,94996.03
2023-04-07T10:07:20.642Z,94991.22
2023-04-07T10:09:49.879Z,95000.63
2023-04-07T10:12:19.981Z,94990.84
2023-04-07T10:14:48.667Z,94986.56
2023-04-07T10:17:20.535Z,94991.31
2023-04-07T10:19:50.732Z,94996.59
2023-04-07T10:22:19.935Z,94990.44
2023-04-07T10:24:55.651Z,94992.16
2023-04-07T10:27:30.538Z,94995.00
2023-04-07T10:29:59.048Z,94992.53
2023-04-07T10:32:27.244Z,94997.13
2023-04-07T10:35:01.382Z,94994.91
2023-04-07T10:37:29.249Z,94988.81
2023-04-07T10:40:31.611Z,94983.09
2023-04-07T10:43:01.258Z,94982.34
2023-04-07T10:45:59.510Z,94988.97
2023-04-07T10:48:32.973Z,94991.09
2023-04-07T10:51:16.549Z,94999.94
2023-04-07T10:54:26.753Z,94998.75
2023-04-07T10:57:14.397Z,94998.94
2023-04-07T10:59:47.216Z,94995.19
2023-04-07T11:02:35.071Z,94998.25
2023-04-07T11:05:03.681Z,94989.34
2023-04-07T11:07:50.398Z,95000.59
2023-04-07T11:10:19.518Z,94977.66
2023-04-07T11:13:06.424Z,94981.06
2023-04-07T11:15:35.774Z,94974.97
2023-04-07T11:18:23.342Z,94979.38
2023-04-07T11:20:53.938Z,94974.63
2023-04-07T11:23:25.260Z,94981.41
2023-04-07T11:25:55.369Z,94969.59
2023-04-07T11:28:24.640Z,94977.50
2023-04-07T11:30:54.789Z,94962.34
2023-04-07T11:33:24.615Z,94958.81
2023-04-07T11:35:55.739Z,94964.06
2023-04-07T11:38:24.970Z,94969.38
2023-04-07T11:40:53.059Z,94967.94
2023-04-07T11:43:22.932Z,94964.63
2023-04-07T11:46:09.798Z,94969.06
2023-04-07T11:48:38.691Z,94963.78
2023-04-07T11:51:07.830Z,94959.69
2023-04-07T11:53:38.309Z,94964.13
2023-04-07T11:56:12.030Z,94956.47
2023-04-07T11:58:40.064Z,94959.75
2023-04-07T12:01:09.606Z,94956.84
2023-04-07T12:03:38.503Z,94957.00
2023-04-07T12:06:07.140Z,94952.41
2023-04-07T12:08:39.712Z,94966.50
2023-04-07T12:11:07.766Z,94957.38
2023-04-07T12:13:35.646Z,94951.97
2023-04-07T12:16:03.546Z,94939.28
2023-04-07T12:18:33.394Z,94949.25
2023-04-07T12:21:01.414Z,94959.41
2023-04-07T12:23:30.069Z,94952.78
2023-04-07T12:25:58.149Z,94962.72
2023-04-07T12:28:26.622Z,94957.06
2023-04-07T12:30:57.498Z,94955.53
2023-04-07T12:33:25.468Z,94964.47
2023-04-07T12:35:54.992Z,94959.25
2023-04-07T12:38:25.911Z,94963.53
2023-04-07T12:41:03.748Z,94963.66
2023-04-07T12:43:32.152Z,94963.47
2023-04-07T12:46:00.197Z,94955.69
2023-04-07T12:48:28.560Z,94958.72
2023-04-07T12:50:57.973Z,94955.72
2023-04-07T12:53:25.834Z,94951.63
2023-04-07T12:55:53.677Z,94957.72
2023-04-07T12:58:23.456Z,94956.09
2023-04-07T13:00:51.267Z,94955.34
2023-04-07T13:03:19.126Z,94957.06
2023-04-07T13:05:50.272Z,94961.00
2023-04-07T13:08:20.810Z,94955.53
2023-04-07T13:10:48.666Z,94959.78
2023-04-07T13:13:16.632Z,94959.91
2023-04-07T13:15:44.859Z,94949.56
2023-04-07T13:18:12.616Z,94962.34
2023-04-07T13:20:40.395Z,94961.13
2023-04-07T13:23:10.219Z,94953.91
2023-04-07T13:25:39.681Z,94955.56
2023-04-07T13:28:07.648Z,94964.69
2023-04-07T13:30:35.683Z,94953.94
2023-04-07T13:33:03.576Z,94945.88
2023-04-07T13:35:35.609Z,94945.59
2023-04-07T13:38:04.312Z,94954.88
2023-04-07T13:40:32.281Z,94947.25
2023-04-07T13:43:01.626Z,94953.13
2023-04-07T13:45:29.440Z,94947.03
2023-04-07T13:47:57.280Z,94949.00
2023-04-07T13:50:25.793Z,94947.38
2023-04-07T13:52:53.621Z,94953.63
2023-04-07T13:55:21.491Z,94960.28
2023-04-07T13:57:49.348Z,94963.63
2023-04-07T14:00:19.302Z,94955.34
2023-04-07T14:02:48.373Z,94954.53
2023-04-07T14:05:16.509Z,94953.19
2023-04-07T14:07:44.268Z,94976.72
2023-04-07T14:10:12.314Z,94953.69
2023-04-07T14:12:40.089Z,94951.13
2023-04-07T14:15:09.138Z,94955.88
2023-04-07T14:17:38.500Z,94959.88
2023-04-07T14:20:07.688Z,94948.97
2023-04-07T14:22:35.512Z,94955.94
2023-04-07T14:25:03.919Z,94963.69
2023-04-07T14:27:31.671Z,94968.06
2023-04-07T14:30:00.182Z,94963.03
2023-04-07T14:32:29.499Z,94968.22
2023-04-07T14:34:59.365Z,94964.66
2023-04-07T14:37:28.496Z,94958.81
2023-04-07T14:40:02.400Z,94958.94
2023-04-07T14:42:31.000Z,94961.09
2023-04-07T14:45:00.101Z,94951.56
2023-04-07T14:47:28.060Z,94954.69
2023-04-07T14:49:55.960Z,94959.75
2023-04-07T14:52:25.927Z,94964.50
2023-04-07T14:54:53.657Z,94975.31
2023-04-07T14:57:22.247Z,94967.53
2023-04-07T14:59:50.043Z,94970.59
2023-04-07T15:02:17.984Z,94967.28
2023-04-07T15:04:45.901Z,94969.88
2023-04-07T15:07:13.826Z,94968.28
2023-04-07T15:09:42.995Z,94969.63
2023-04-07T15:12:10.769Z,94971.97
2023-04-07T15:14:42.723Z,94965.47
2023-04-07T15:17:13.506Z,94973.34
2023-04-07T15:19:41.310Z,94972.41
2023-04-07T15:22:09.077Z,94973.94
2023-04-07T15:24:36.896Z,94969.47
2023-04-07T15:27:07.524Z,94970.66
2023-04-07T15:29:35.335Z,94972.44
2023-04-07T15:32:03.136Z,94978.09
2023-04-07T15:34:30.879Z,94978.53
2023-04-07T15:36:58.694Z,94978.28
2023-04-07T15:39:26.504Z,94980.78
2023-04-07T15:41:54.393Z,94985.06
2023-04-07T15:44:23.841Z,94979.69
2023-04-07T15:46:51.714Z,94985.44
2023-04-07T15:49:23.113Z,94983.22
2023-04-07T15:51:52.725Z,94976.91
2023-04-07T15:54:20.485Z,94985.56
2023-04-07T15:56:48.302Z,94985.06
2023-04-07T15:59:16.227Z,94992.97
2023-04-07T16:01:45.780Z,94989.22
2023-04-07T16:04:13.671Z,94992.16
2023-04-07T16:06:41.612Z,94992.97
2023-04-07T16:09:09.408Z,94988.03
2023-04-07T16:11:37.191Z,94990.38
2023-04-07T16:14:05.807Z,94991.78
2023-04-07T16:16:37.030Z,94992.75
2023-04-07T16:19:06.379Z,94993.16
2023-04-07T16:21:34.214Z,94991.59
2023-04-07T16:24:01.986Z,94990.41
2023-04-07T16:26:29.751Z,94997.50
2023-04-07T16:28:57.797Z,95005.19
2023-04-07T16:31:25.656Z,95005.22
2023-04-07T16:33:55.879Z,95001.84
2023-04-07T16:36:25.124Z,95007.41
2023-04-07T16:38:53.042Z,95008.97
2023-04-07T16:41:21.448Z,95018.47
2023-04-07T16:43:49.439Z,95019.44
2023-04-07T16:46:17.648Z,95015.88
2023-04-07T16:48:45.447Z,95025.16
2023-04-07T16:51:17.516Z,95023.72
2023-04-07T16:53:47.030Z,95020.00
2023-04-07T16:56:17.117Z,95031.03
2023-04-07T16:58:45.100Z,95022.56
2023-04-07T17:01:13.048Z,95025.31
2023-04-07T17:03:41.358Z,95029.06
2023-04-07T17:06:09.196Z,95018.00
2023-04-07T17:08:37.980Z,95039.28
2023-04-07T17:11:09.179Z,95038.06
2023-04-07T17:13:37.577Z,95033.16
2023-04-07T17:16:05.992Z,95040.41
2023-04-07T17:18:34.659Z,95044.94
2023-04-07T17:21:02.475Z,95041.41
2023-04-07T17:23:30.851Z,95047.50
2023-04-07T17:25:58.652Z,95038.84
2023-04-07T17:28:29.918Z,95048.09
2023-04-07T17:30:58.460Z,95056.97
2023-04-07T17:33:27.010Z,95053.00
2023-04-07T17:35:55.976Z,95055.19
2023-04-07T17:38:23.792Z,95064.84
2023-04-07T17:40:59.332Z,95055.34
2023-04-07T17:43:28.715Z,95060.25
2023-04-07T17:45:56.593Z,95068.13
2023-04-07T17:48:24.762Z,95065.94
2023-04-07T17:50:52.851Z,95065.34
2023-04-07T17:53:22.188Z,95068.91
2023-04-07T17:55:50.702Z,95078.75
2023-04-07T17:58:20.052Z,95079.53
2023-04-07T18:00:50.531Z,95083.22
2023-04-07T18:03:19.496Z,95084.38
2023-04-07T18:05:49.138Z,95088.47
2023-04-07T18:08:17.091Z,95087.91
2023-04-07T18:10:45.120Z,95093.84
2023-04-07T18:13:12.962Z,95098.94
2023-04-07T18:15:40.992Z,95102.13
2023-04-07T18:18:10.320Z,95103.28
2023-04-07T18:20:38.203Z,95112.91
2023-04-07T18:23:06.528Z,95107.56
2023-04-07T18:25:35.058Z,95114.25
2023-04-07T18:28:02.953Z,95116.63
2023-04-07T18:30:31.022Z,95116.81
2023-04-07T18:32:58.932Z,95107.00
2023-04-07T18:35:28.537Z,95113.66
2023-04-07T18:37:57.110Z,95123.50
2023-04-07T18:40:25.005Z,95124.13
2023-04-07T18:42:52.964Z,95125.69
2023-04-07T18:45:20.712Z,95131.38
2023-04-07T18:47:48.744Z,95125.84
2023-04-07T18:50:16.707Z,95134.66
2023-04-07T18:52:45.839Z,95132.66
2023-04-07T18:55:14.040Z,95138.22
2023-04-07T18:57:41.955Z,95151.38
2023-04-07T19:00:10.614Z,95148.75
2023-04-07T19:02:44.128Z,95159.56
2023-04-07T19:05:12.619Z,95155.00
2023-04-07T19:07:40.626Z,95162.06
2023-04-07T19:10:10.448Z,95160.31
2023-04-07T19:12:38.722Z,95162.06
2023-04-07T19:15:08.000Z,95164.75
2023-04-07T19:17:35.954Z,95165.34
2023-04-07T19:20:03.860Z,95167.91
2023-04-07T19:22:31.676Z,95165.97
2023-04-07T19:24:59.576Z,95165.53
2023-04-07T19:27:29.696Z,95170.06
2023-04-07T19:29:57.572Z,95167.69
2023-04-07T19:32:25.444Z,95175.31
2023-04-07T19:34:53.283Z,95173.28
2023-04-07T19:37:21.047Z,95175.06
2023-04-07T19:40:01.529Z,95182.84
2023-04-07T19:42:31.866Z,95187.31
2023-04-07T19:45:02.199Z,95184.13
2023-04-07T19:47:30.046Z,95190.50
2023-04-07T19:49:58.039Z,95186.13
2023-04-07T19:52:26.040Z,95192.59
2023-04-07T19:54:53.870Z,95187.09
2023-04-07T19:57:21.747Z,95195.81
2023-04-07T19:59:50.884Z,95190.69
2023-04-07T20:02:18.835Z,95183.97
2023-04-07T20:04:46.886Z,95198.72
2023-04-07T20:07:14.636Z,95190.88
2023-04-07T20:09:42.382Z,95187.53
2023-04-07T20:12:10.693Z,95193.22
2023-04-07T20:14:38.719Z,95201.25
2023-04-07T20:17:08.084Z,95192.03
2023-04-07T20:19:36.158Z,95193.44
2023-04-07T20:22:04.546Z,95196.56
2023-04-07T20:24:32.364Z,95197.16
2023-04-07T20:27:00.137Z,95194.59
2023-04-07T20:29:27.911Z,95195.44
2023-04-07T20:31:55.727Z,95197.31
2023-04-07T20:34:24.840Z,95204.59
2023-04-07T20:36:52.630Z,95205.13
2023-04-07T20:39:20.474Z,95208.47
2023-04-07T20:41:48.296Z,95202.78
2023-04-07T20:44:16.142Z,95203.84
2023-04-07T20:46:45.152Z,95205.56
2023-04-07T20:49:13.041Z,95202.28
2023-04-07T20:51:42.174Z,95198.94
2023-04-07T20:54:09.990Z,95201.97
2023-04-07T20:56:37.837Z,95204.94
2023-04-07T20:59:06.317Z,95189.97
2023-04-07T21:01:34.390Z,95199.31
2023-04-07T21:04:02.923Z,95202.56
2023-04-07T21:06:31.349Z,95202.66
2023-04-07T21:09:01.311Z,95200.97
2023-04-07T21:11:29.237Z,95198.16
2023-04-07T21:13:57.037Z,95215.06
2023-04-07T21:16:24.968Z,95203.63
2023-04-07T21:18:53.029Z,95199.97
2023-04-07T21:21:20.896Z,95202.19
2023-04-07T21:23:48.735Z,95199.03
2023-04-07T21:26:17.914Z,95203.44
2023-04-07T21:28:45.717Z,95209.56
2023-04-07T21:31:21.664Z,95202.97
2023-04-07T21:33:49.957Z,95201.06
2023-04-07T21:36:17.888Z,95204.28
2023-04-07T21:38:45.827Z,95206.81
2023-04-07T21:41:13.588Z,95214.38
2023-04-07T21:43:43.140Z,95211.88
2023-04-07T21:46:11.209Z,95203.34
2023-04-07T21:48:39.046Z,95210.28
2023-04-07T21:51:08.143Z,95201.34
2023-04-07T21:53:36.872Z,95206.09
2023-04-07T21:56:05.255Z,95192.88
2023-04-07T21:58:33.109Z,95206.16
2023-04-07T22:01:02.647Z,95201.19
2023-04-07T22:03:30.687Z,95212.84
2023-04-07T22:05:59.301Z,95219.31
2023-04-07T22:08:28.271Z,95214.41
2023-04-07T22:10:56.755Z,95221.06
2023-04-07T22:13:24.560Z,95216.34
2023-04-07T22:15:52.575Z,95217.88
2023-04-07T22:18:22.263Z,95214.94
2023-04-07T22:20:50.096Z,95221.50
2023-04-07T22:23:17.885Z,95220.09
2023-04-07T22:25:45.766Z,95216.00
2023-04-07T22:28:13.600Z,95219.03
2023-04-07T22:30:41.369Z,95214.97
2023-04-07T22:33:10.660Z,95211.94
2023-04-07T22:35:39.954Z,95207.16
2023-04-07T22:38:07.782Z,95217.69
2023-04-07T22:40:35.704Z,95213.72
2023-04-07T22:43:03.509Z,95217.06
2023-04-07T22:45:31.619Z,95214.53
2023-04-07T22:47:59.509Z,95219.31
2023-04-07T22:50:27.338Z,95221.88
2023-04-07T22:52:56.464Z,95226.16
2023-04-07T22:55:24.355Z,95224.88
2023-04-07T22:57:52.164Z,95223.63
2023-04-07T23:00:20.039Z,95227.25
2023-04-07T23:02:47.956Z,95225.03
2023-04-07T23:05:15.992Z,95227.25
2023-04-07T23:07:44.715Z,95235.34
2023-04-07T23:10:13.870Z,95228.19
2023-04-07T23:12:41.623Z,95223.91
2023-04-07T23:15:10.352Z,95229.81
2023-04-07T23:17:38.233Z,95232.84
2023-04-07T23:20:07.056Z,95234.28
2023-04-07T23:22:34.910Z,95239.53
2023-04-07T23:25:03.085Z,95234.00
2023-04-07T23:27:33.425Z,95232.22
2023-04-07T23:30:01.593Z,95241.59
2023-04-07T23:32:29.642Z,95230.00
2023-04-07T23:34:57.456Z,95228.75
2023-04-07T23:37:25.281Z,95236.03
2023-04-07T23:39:53.075Z,95234.94
2023-04-07T23:42:20.865Z,95243.34
2023-04-07T23:44:49.980Z,95240.97
2023-04-07T23:47:17.903Z,95235.06
2023-04-07T23:49:45.742Z,95239.75
2023-04-07T23:52:13.511Z,95241.81
2023-04-07T23:54:41.596Z,95242.72
2023-04-07T23:57:09.577Z,95240.22
2023-04-07T23:59:37.435Z,95230.16
